Time;durP1;ratioP1;P1;durP2;ratioP2;P2;SDS_P1;SDS_P2;PMS_P1;PMS_P2;Temp;Humidity;BMP_temperature;BMP_pressure;BME280_temperature;BME280_humidity;BME280_pressure;Samples;Min_cycle;Max_cycle;Signal;HPM_P1;HPM_P2
2023/07/02 00:02:16;;;;;;;;;35.67;30.33;;;;;20.48;50.52;100801.38;5058822;28;45609;-69
2023/07/02 00:04:41;;;;;;;;;38.00;31.33;;;;;20.47;50.94;100798.88;5076796;28;46498;-69
2023/07/02 00:07:07;;;;;;;;;41.33;31.67;;;;;20.26;50.87;100762.91;5076377;28;45505;-69
2023/07/02 00:09:32;;;;;;;;;40.00;32.67;;;;;20.53;50.79;100808.84;5076690;27;45232;-70
2023/07/02 00:11:57;;;;;;;;;34.00;27.67;;;;;20.51;50.51;100809.06;5076875;28;45328;-70
2023/07/02 00:14:23;;;;;;;;;39.33;33.00;;;;;20.48;50.50;100808.63;5076487;28;46478;-68
2023/07/02 00:16:48;;;;;;;;;42.33;32.33;;;;;20.17;50.69;100756.03;5076293;28;48118;-69
2023/07/02 00:19:14;;;;;;;;;38.67;32.00;;;;;20.35;50.82;100798.63;5076560;28;45370;-70
2023/07/02 00:21:40;;;;;;;;;37.33;32.33;;;;;20.34;51.24;100800.50;5076704;28;45423;-69
2023/07/02 00:24:06;;;;;;;;;38.00;32.00;;;;;20.30;51.20;100793.84;5076118;28;46470;-69
2023/07/02 00:26:31;;;;;;;;;40.00;33.33;;;;;20.25;51.25;100790.94;5076407;28;45533;-69
2023/07/02 00:28:57;;;;;;;;;35.67;30.67;;;;;20.26;51.52;100798.00;5058264;28;45414;-70
2023/07/02 00:31:23;;;;;;;;;38.67;31.33;;;;;20.01;51.44;100751.03;5076689;28;45431;-69
2023/07/02 00:33:49;;;;;;;;;41.33;30.33;;;;;20.26;51.55;100803.41;5077482;28;45234;-69
2023/07/02 00:36:15;;;;;;;;;38.33;33.00;;;;;20.21;51.90;100795.06;5061505;27;46360;-70
2023/07/02 00:38:48;;;;;;;;;34.00;30.67;;;;;20.11;51.77;100794.66;5079759;28;45439;-72
2023/07/02 00:41:14;;;;;;;;;29.33;25.67;;;;;20.15;51.96;100798.59;5080084;27;45215;-71
2023/07/02 00:43:43;;;;;;;;;28.67;25.67;;;;;20.04;52.37;100788.41;5079765;28;46610;-70
2023/07/02 00:46:10;;;;;;;;;34.33;31.67;;;;;20.09;52.13;100796.72;5079529;27;45269;-71
2023/07/02 00:48:38;;;;;;;;;34.67;30.33;;;;;20.09;52.22;100796.72;5079919;28;45444;-71
2023/07/02 00:51:03;;;;;;;;;43.33;31.67;;;;;20.04;52.41;100796.50;5061518;27;45506;-71
2023/07/02 00:53:28;;;;;;;;;34.33;29.00;;;;;20.03;52.51;100805.66;5079395;28;45189;-69
2023/07/02 00:55:54;;;;;;;;;39.00;31.00;;;;;20.00;52.61;100808.72;5079123;27;45179;-70
2023/07/02 00:58:20;;;;;;;;;42.00;31.67;;;;;19.95;52.79;100797.72;5079830;28;45224;-70
2023/07/02 01:00:46;;;;;;;;;36.00;29.00;;;;;19.93;52.94;100792.53;5079926;27;45376;-71
2023/07/02 01:03:12;;;;;;;;;31.00;25.67;;;;;19.64;53.26;100749.72;5079346;27;46500;-69
2023/07/02 01:05:37;;;;;;;;;36.67;32.00;;;;;19.84;52.86;100782.16;5079527;28;45517;-70
2023/07/02 01:08:06;;;;;;;;;31.00;28.33;;;;;19.79;52.69;100781.91;5079258;27;45419;-69
2023/07/02 01:10:32;;;;;;;;;38.00;31.00;;;;;19.86;53.64;100797.09;5079611;28;45479;-69
2023/07/02 01:13:10;;;;;;;;;34.67;29.00;;;;;19.83;53.69;100804.75;5079122;27;46570;-70
2023/07/02 01:15:37;;;;;;;;;34.67;28.33;;;;;19.83;53.85;100807.47;5079150;28;45330;-70
2023/07/02 01:18:04;;;;;;;;;32.33;27.67;;;;;19.40;53.57;100738.38;5079295;28;45253;-70
2023/07/02 01:20:31;;;;;;;;;32.67;28.67;;;;;19.77;53.86;100809.09;5079595;27;45426;-71
2023/07/02 01:22:57;;;;;;;;;37.33;31.33;;;;;19.68;54.08;100799.53;5078903;27;45983;-71
2023/07/02 01:25:24;;;;;;;;;36.00;30.67;;;;;19.71;53.86;100809.91;5079088;28;45509;-68
2023/07/02 01:27:50;;;;;;;;;30.00;26.67;;;;;19.63;53.98;100824.41;5078966;27;45595;-71
2023/07/02 01:30:15;;;;;;;;;40.67;32.00;;;;;19.07;54.17;100724.78;5079198;28;45351;-71
2023/07/02 01:32:41;;;;;;;;;35.33;31.33;;;;;19.61;54.19;100820.22;5078896;27;45619;-70
2023/07/02 01:35:07;;;;;;;;;43.33;33.00;;;;;19.18;54.52;100755.72;5078859;28;46608;-69
2023/07/02 01:37:37;;;;;;;;;36.33;29.33;;;;;19.49;54.56;100809.16;5060912;28;45341;-70
2023/07/02 01:40:08;;;;;;;;;40.33;32.33;;;;;19.55;54.83;100819.16;5078849;27;45367;-70
2023/07/02 01:42:34;;;;;;;;;28.67;26.33;;;;;19.53;54.49;100817.69;5078716;27;46512;-71
2023/07/02 01:44:59;;;;;;;;;36.33;31.33;;;;;19.55;54.73;100821.03;5078358;28;45383;-71
2023/07/02 01:47:25;;;;;;;;;35.00;31.00;;;;;19.54;54.69;100819.38;5078972;28;45541;-71
2023/07/02 01:49:51;;;;;;;;;30.67;29.33;;;;;19.53;54.76;100817.69;5079041;28;45439;-70
2023/07/02 01:52:17;;;;;;;;;29.33;28.67;;;;;19.48;54.66;100814.75;5060337;28;47691;-71
2023/07/02 01:54:44;;;;;;;;;29.33;27.00;;;;;19.24;55.03;100781.06;5078664;27;45455;-70
2023/07/02 01:57:09;;;;;;;;;34.00;31.50;;;;;19.41;54.83;100812.00;5078497;28;45253;-71
2023/07/02 01:59:34;;;;;;;;;34.33;23.33;;;;;19.40;55.10;100804.94;5078597;28;45261;-69
2023/07/02 02:02:00;;;;;;;;;31.67;28.67;;;;;19.45;55.32;100821.38;5078436;28;46467;-71
2023/07/02 02:04:26;;;;;;;;;29.00;22.67;;;;;19.44;55.34;100822.41;5078695;28;45158;-71
2023/07/02 02:06:52;;;;;;;;;37.00;30.00;;;;;19.43;55.74;100818.91;5078495;28;45253;-70
2023/07/02 02:09:18;;;;;;;;;33.00;29.00;;;;;19.18;55.73;100779.13;5078601;28;45271;-70
2023/07/02 02:11:48;;;;;;;;;29.00;25.67;;;;;19.34;55.48;100814.69;5060182;28;46568;-71
2023/07/02 02:14:14;;;;;;;;;37.33;28.33;;;;;19.28;55.98;100809.25;5078216;27;45316;-69
2023/07/02 02:16:39;;;;;;;;;31.67;27.67;;;;;19.22;55.79;100805.50;5078324;28;45324;-70
2023/07/02 02:19:05;;;;;;;;;36.67;31.33;;;;;19.21;55.90;100824.56;5078770;27;45363;-70
2023/07/02 02:21:30;;;;;;;;;28.67;25.00;;;;;19.23;56.07;100828.75;5078278;28;45865;-70
2023/07/02 02:23:59;;;;;;;;;37.33;30.00;;;;;19.22;56.08;100823.50;5059791;28;45309;-70
2023/07/02 02:26:25;;;;;;;;;32.33;26.33;;;;;19.15;56.22;100808.16;5078358;27;45298;-70
2023/07/02 02:28:51;;;;;;;;;34.33;28.67;;;;;19.23;56.21;100827.91;5078268;28;45590;-70
2023/07/02 02:31:16;;;;;;;;;31.67;29.33;;;;;19.20;56.74;100839.06;5077899;28;46273;-71
2023/07/02 02:33:42;;;;;;;;;31.67;29.00;;;;;19.13;56.42;100818.28;5077931;28;45345;-70
2023/07/02 02:36:07;;;;;;;;;28.33;24.67;;;;;19.21;56.33;100827.25;5078156;28;45293;-70
2023/07/02 02:38:34;;;;;;;;;29.67;25.33;;;;;19.15;56.65;100821.63;5059812;28;45688;-70
2023/07/02 02:41:00;;;;;;;;;38.33;29.00;;;;;19.22;56.44;100831.59;5077849;28;46696;-70
2023/07/02 02:43:25;;;;;;;;;26.67;24.00;;;;;19.17;56.55;100818.72;5077859;27;45466;-70
2023/07/02 02:45:51;;;;;;;;;29.33;25.33;;;;;19.20;56.33;100844.44;5078011;28;45799;-70
2023/07/02 02:48:16;;;;;;;;;33.67;28.33;;;;;19.18;56.52;100836.56;5078261;28;45556;-70
2023/07/02 02:50:42;;;;;;;;;28.00;26.67;;;;;19.15;56.89;100837.78;5077341;28;59872;-70
2023/07/02 02:53:08;;;;;;;;;39.67;26.67;;;;;19.11;56.69;100835.69;5077612;28;45344;-71
2023/07/02 02:55:33;;;;;;;;;31.00;25.67;;;;;19.07;56.88;100824.50;5077409;27;45265;-70
2023/07/02 02:57:59;;;;;;;;;33.67;24.33;;;;;19.07;56.68;100827.19;5077205;28;45411;-70
2023/07/02 03:00:25;;;;;;;;;24.00;21.67;;;;;19.08;56.98;100834.22;5077741;28;45627;-71
2023/07/02 03:02:50;;;;;;;;;25.33;25.00;;;;;18.75;56.93;100782.81;5077616;27;45466;-72
2023/07/02 03:05:16;;;;;;;;;32.00;24.33;;;;;18.76;57.10;100779.09;5077690;27;45308;-71
2023/07/02 03:07:41;;;;;;;;;31.33;29.33;;;;;18.99;57.42;100831.88;5077845;27;45313;-69
2023/07/02 03:10:07;;;;;;;;;27.67;27.00;;;;;18.97;57.13;100832.06;5077285;28;46510;-69
2023/07/02 03:12:33;;;;;;;;;32.67;26.00;;;;;18.92;57.22;100845.31;5077432;28;45458;-69
2023/07/02 03:14:58;;;;;;;;;26.33;23.33;;;;;18.86;57.56;100835.31;5077539;28;45379;-69
2023/07/02 03:17:24;;;;;;;;;30.33;24.67;;;;;18.85;57.72;100833.66;5059508;28;45331;-70
2023/07/02 03:19:49;;;;;;;;;29.33;25.33;;;;;18.84;57.22;100823.91;5077396;28;45504;-69
2023/07/02 03:22:14;;;;;;;;;30.33;25.67;;;;;18.76;57.45;100814.09;5077496;27;45328;-69
2023/07/02 03:24:40;;;;;;;;;28.67;24.67;;;;;18.75;58.08;100825.06;5058934;28;45526;-70
2023/07/02 03:27:06;;;;;;;;;28.67;25.67;;;;;18.81;57.99;100840.44;5077662;28;45403;-70
2023/07/02 03:29:31;;;;;;;;;28.00;21.00;;;;;18.58;58.27;100812.88;5058985;28;46527;-70
2023/07/02 03:31:57;;;;;;;;;27.67;23.33;;;;;18.64;57.76;100820.25;5077059;27;45475;-70
2023/07/02 03:34:23;;;;;;;;;32.00;28.00;;;;;18.73;58.09;100837.91;5077819;28;45269;-70
2023/07/02 03:36:49;;;;;;;;;24.67;22.33;;;;;18.70;58.33;100849.06;5077867;28;45420;-69
2023/07/02 03:39:14;;;;;;;;;29.00;25.00;;;;;18.48;58.44;100818.63;5076814;28;46309;-71
2023/07/02 03:41:40;;;;;;;;;34.67;27.67;;;;;18.71;58.27;100858.81;5077095;28;45305;-69
2023/07/02 03:44:06;;;;;;;;;26.33;23.00;;;;;18.66;58.36;100850.50;5077458;27;45541;-69
2023/07/02 03:46:31;;;;;;;;;33.33;26.00;;;;;18.67;58.36;100855.69;5059106;28;45436;-71
2023/07/02 03:48:57;;;;;;;;;30.00;26.33;;;;;18.63;58.58;100867.88;5077128;28;46302;-70
2023/07/02 03:51:22;;;;;;;;;31.33;25.00;;;;;18.54;58.92;100872.50;5076997;28;45609;-68
2023/07/02 03:53:48;;;;;;;;;23.67;21.33;;;;;18.36;58.86;100847.06;5076954;28;45607;-70
2023/07/02 03:56:13;;;;;;;;;31.67;24.67;;;;;18.15;58.78;100808.34;5076921;28;45462;-70
2023/07/02 03:58:40;;;;;;;;;28.33;21.00;;;;;18.49;59.09;100874.13;5058549;27;47421;-70
2023/07/02 04:01:05;;;;;;;;;26.33;23.67;;;;;18.46;59.00;100864.56;5076952;28;45260;-70
2023/07/02 04:03:30;;;;;;;;;23.33;21.00;;;;;17.56;59.34;100721.63;5076934;28;45481;-69
2023/07/02 04:05:56;;;;;;;;;31.33;26.33;;;;;18.58;59.02;100880.19;5077130;27;45197;-69
2023/07/02 04:08:22;;;;;;;;;26.33;23.67;;;;;18.54;58.87;100885.97;5060453;28;48424;-70
2023/07/02 04:10:47;;;;;;;;;28.33;22.00;;;;;18.49;58.98;100884.88;5080178;27;45495;-69
2023/07/02 04:13:13;;;;;;;;;28.00;22.00;;;;;18.45;59.02;100876.38;5080392;28;45247;-70
2023/07/02 04:15:38;;;;;;;;;28.33;22.33;;;;;18.52;59.05;100882.63;5080475;28;45358;-69
2023/07/02 04:18:04;;;;;;;;;22.67;19.33;;;;;18.12;59.28;100818.69;5080193;27;46587;-71
2023/07/02 04:20:29;;;;;;;;;32.00;20.33;;;;;18.44;59.17;100872.00;5080183;28;45837;-69
2023/07/02 04:22:55;;;;;;;;;24.67;20.67;;;;;18.51;58.95;100878.28;5080086;28;45240;-69
2023/07/02 04:25:20;;;;;;;;;26.00;20.33;;;;;18.53;59.29;100884.31;5080630;27;45378;-69
2023/07/02 04:27:46;;;;;;;;;25.67;19.33;;;;;18.60;58.98;100903.22;5079997;27;45647;-70
2023/07/02 04:30:12;;;;;;;;;23.67;22.33;;;;;18.53;59.34;100886.16;5079824;27;45328;-70
2023/07/02 04:32:41;;;;;;;;;28.33;23.67;;;;;18.60;59.03;100897.00;5080172;28;45313;-69
2023/07/02 04:35:09;;;;;;;;;23.33;21.33;;;;;18.59;58.78;100887.25;5080472;28;45509;-68
2023/07/02 04:37:35;;;;;;;;;25.33;24.00;;;;;18.69;59.10;100898.56;5079723;27;46118;-68
2023/07/02 04:40:03;;;;;;;;;30.00;25.67;;;;;18.39;59.20;100847.50;5079447;27;45398;-69
2023/07/02 04:42:31;;;;;;;;;29.33;23.67;;;;;18.78;59.05;100903.63;5079816;28;45304;-70
2023/07/02 04:45:02;;;;;;;;;30.67;24.67;;;;;18.74;58.36;100888.88;5061778;28;45617;-72
2023/07/02 04:47:27;;;;;;;;;23.00;21.00;;;;;18.78;58.45;100902.78;5079418;27;46779;-71
2023/07/02 04:49:53;;;;;;;;;26.33;22.67;;;;;18.82;58.09;100893.28;5079455;28;45364;-70
2023/07/02 04:52:18;;;;;;;;;21.67;20.33;;;;;18.89;58.17;100888.81;5061287;28;47088;-71
2023/07/02 04:54:43;;;;;;;;;31.00;22.33;;;;;19.07;58.90;100899.09;5079667;28;45382;-70
2023/07/02 04:57:09;;;;;;;;;27.67;24.67;;;;;18.98;57.93;100879.53;5079336;27;46435;-69
2023/07/02 04:59:34;;;;;;;;;28.33;24.33;;;;;19.20;57.76;100909.13;5079801;28;45301;-71
2023/07/02 05:01:59;;;;;;;;;23.00;19.67;;;;;19.28;57.70;100907.13;5061564;28;45557;-68
2023/07/02 05:04:25;;;;;;;;;28.33;22.67;;;;;18.96;57.61;100848.44;5079477;28;45235;-69
2023/07/02 05:06:50;;;;;;;;;21.00;17.33;;;;;19.24;57.19;100887.00;5079476;27;45790;-71
2023/07/02 05:09:15;;;;;;;;;29.67;24.00;;;;;19.25;57.16;100893.22;5079068;27;45417;-70
2023/07/02 05:11:41;;;;;;;;;28.00;22.33;;;;;19.37;57.28;100915.91;5079253;28;45181;-71
2023/07/02 05:14:06;;;;;;;;;27.00;24.67;;;;;19.34;57.32;100895.56;5079492;27;45486;-70
2023/07/02 05:16:31;;;;;;;;;24.00;22.33;;;;;19.35;57.01;100888.31;5060848;28;47367;-70
2023/07/02 05:18:57;;;;;;;;;22.00;17.00;;;;;19.39;57.15;100897.66;5078619;28;45431;-70
2023/07/02 05:21:22;;;;;;;;;28.00;24.00;;;;;19.42;57.31;100881.06;5078968;27;45215;-68
2023/07/02 05:23:48;;;;;;;;;27.67;23.67;;;;;19.60;57.04;100919.19;5061018;28;45547;-70
2023/07/02 05:26:13;;;;;;;;;21.33;18.00;;;;;19.72;57.16;100909.50;5060877;27;47530;-71
2023/07/02 05:28:39;;;;;;;;;21.33;18.00;;;;;19.85;56.43;100905.22;5079075;28;45322;-71
2023/07/02 05:31:04;;;;;;;;;21.33;18.00;;;;;20.00;56.40;100905.88;5078941;27;45330;-70
2023/07/02 05:33:32;;;;;;;;;24.67;22.33;;;;;20.07;55.80;100908.63;5079137;28;45473;-71
2023/07/02 05:35:57;;;;;;;;;20.00;17.67;;;;;20.16;55.87;100910.94;5079035;28;46661;-70
2023/07/02 05:38:23;;;;;;;;;21.67;21.00;;;;;20.27;55.56;100913.06;5078321;28;45470;-71
2023/07/02 05:40:48;;;;;;;;;20.00;16.00;;;;;20.41;55.22;100918.50;5079252;27;45294;-72
2023/07/02 05:43:13;;;;;;;;;21.67;19.00;;;;;20.55;55.15;100928.31;5079280;27;45560;-68
2023/07/02 05:45:39;;;;;;;;;24.67;20.67;;;;;20.40;54.38;100895.22;5060364;28;48180;-70
2023/07/02 05:48:04;;;;;;;;;28.33;20.00;;;;;20.65;54.50;100926.06;5078897;27;45228;-70
2023/07/02 05:50:29;;;;;;;;;25.67;19.00;;;;;20.64;54.96;100911.72;5078672;28;45220;-70
2023/07/02 05:52:55;;;;;;;;;24.33;20.67;;;;;20.77;53.90;100924.38;5078437;27;48032;-69
2023/07/02 05:55:20;;;;;;;;;25.00;22.33;;;;;20.83;53.85;100928.16;5078410;28;45553;-70
2023/07/02 05:57:46;;;;;;;;;28.33;22.67;;;;;20.90;54.03;100935.22;5060583;28;45288;-69
2023/07/02 06:00:12;;;;;;;;;29.00;24.33;;;;;21.00;53.66;100931.25;5060494;28;45396;-70
2023/07/02 06:02:37;;;;;;;;;22.00;17.33;;;;;20.94;52.86;100909.44;5079110;28;45342;-69
2023/07/02 06:05:03;;;;;;;;;28.67;25.00;;;;;21.10;52.64;100923.59;5078303;28;45799;-69
2023/07/02 06:07:29;;;;;;;;;25.33;19.67;;;;;21.31;53.01;100936.06;5078463;27;45373;-69
2023/07/02 06:09:54;;;;;;;;;27.00;20.67;;;;;21.46;52.35;100942.94;5078314;28;45613;-69
2023/07/02 06:12:21;;;;;;;;;29.00;23.67;;;;;21.59;52.53;100943.94;5078499;28;45586;-69
2023/07/02 06:14:47;;;;;;;;;24.67;17.67;;;;;21.24;51.39;100882.84;5060066;28;48977;-70
2023/07/02 06:17:12;;;;;;;;;22.33;20.33;;;;;21.76;51.72;100942.44;5078394;28;45340;-70
2023/07/02 06:19:38;;;;;;;;;22.00;19.67;;;;;21.97;51.09;100934.03;5078557;28;45452;-70
2023/07/02 06:22:03;;;;;;;;;21.33;18.67;;;;;22.24;50.40;100952.94;5078460;27;45426;-69
2023/07/02 06:24:29;;;;;;;;;30.67;22.00;;;;;22.34;49.86;100945.16;5059764;27;47925;-70
2023/07/02 06:26:54;;;;;;;;;27.67;19.33;;;;;22.38;49.73;100938.25;5078291;28;45261;-69
2023/07/02 06:29:22;;;;;;;;;15.00;13.67;;;;;22.45;49.50;100939.91;5078297;27;45402;-69
2023/07/02 06:31:47;;;;;;;;;21.67;21.00;;;;;22.19;50.44;100896.69;5078487;28;45378;-69
2023/07/02 06:34:14;;;;;;;;;26.67;23.00;;;;;22.80;49.50;100957.59;5077767;28;51213;-69
2023/07/02 06:36:39;;;;;;;;;27.67;25.00;;;;;22.63;48.84;100909.34;5077996;28;45447;-69
2023/07/02 06:39:05;;;;;;;;;34.67;29.67;;;;;23.04;48.32;100933.25;5077746;28;45296;-70
2023/07/02 06:41:30;;;;;;;;;25.00;21.00;;;;;23.28;47.78;100953.28;5078046;28;45458;-71
2023/07/02 06:43:55;;;;;;;;;21.33;20.00;;;;;23.30;47.26;100948.47;5077993;28;46377;-70
2023/07/02 06:46:20;;;;;;;;;17.67;16.00;;;;;23.67;47.40;100954.81;5077936;28;45514;-69
2023/07/02 06:48:46;;;;;;;;;25.00;18.67;;;;;24.00;46.37;100952.75;5077889;28;45344;-71
2023/07/02 06:51:14;;;;;;;;;26.67;18.67;;;;;24.07;46.05;100962.50;5078041;28;45469;-71
2023/07/02 06:53:41;;;;;;;;;21.00;19.33;;;;;24.09;46.03;100968.53;5077203;28;46502;-72
2023/07/02 06:56:08;;;;;;;;;23.67;20.00;;;;;24.07;45.56;100970.66;5077614;28;45171;-71
2023/07/02 06:58:34;;;;;;;;;26.67;21.67;;;;;23.83;45.67;100920.00;5087774;27;45716;-70
2023/07/02 07:00:59;;;;;;;;;22.00;17.33;;;;;24.23;45.67;100963.78;5079669;27;45572;-68
2023/07/02 07:03:25;;;;;;;;;24.33;19.00;;;;;24.33;44.87;100977.69;5095318;27;48160;-70
2023/07/02 07:05:51;;;;;;;;;23.67;19.67;;;;;24.29;44.91;100959.34;5075019;28;45497;-69
2023/07/02 07:08:16;;;;;;;;;24.00;20.33;;;;;24.33;45.06;100969.53;5079468;27;45444;-70
2023/07/02 07:10:41;;;;;;;;;27.33;20.33;;;;;24.28;44.90;100972.06;5098262;27;45313;-69
2023/07/02 07:13:07;;;;;;;;;21.67;21.00;;;;;24.26;45.37;100976.91;5097657;27;45662;-69
2023/07/02 07:15:36;;;;;;;;;20.67;16.67;;;;;24.51;45.63;100964.06;5093055;27;45851;-69
2023/07/02 07:18:02;;;;;;;;;19.33;16.33;;;;;24.96;43.53;100960.03;5092778;27;45435;-69
2023/07/02 07:20:28;;;;;;;;;26.33;20.00;;;;;25.22;43.26;100953.34;5094720;27;45280;-69
2023/07/02 07:22:54;;;;;;;;;23.33;19.33;;;;;25.16;43.65;100920.59;5075298;27;46346;-69
2023/07/02 07:25:19;;;;;;;;;30.33;24.00;;;;;25.53;42.62;100977.53;5093217;27;45509;-70
2023/07/02 07:27:45;;;;;;;;;27.00;23.00;;;;;25.39;43.24;100968.75;5097700;27;45343;-69
2023/07/02 07:30:11;;;;;;;;;23.67;21.67;;;;;25.41;43.44;100979.41;5079304;27;45381;-70
2023/07/02 07:32:36;;;;;;;;;23.33;21.33;;;;;25.14;43.11;100949.94;5093907;27;45771;-76
2023/07/02 07:35:01;;;;;;;;;22.00;20.67;;;;;25.23;43.61;100974.91;5095073;27;55014;-69
2023/07/02 07:37:26;;;;;;;;;23.33;20.33;;;;;25.17;43.87;100982.09;5097611;27;45430;-69
2023/07/02 07:39:52;;;;;;;;;32.67;24.67;;;;;25.16;43.12;100975.00;5097632;27;45278;-70
2023/07/02 07:42:17;;;;;;;;;25.00;23.33;;;;;24.93;43.50;100931.41;5097622;27;45622;-69
2023/07/02 07:44:45;;;;;;;;;27.67;23.00;;;;;25.28;43.17;100968.75;5100973;27;45422;-69
2023/07/02 07:47:10;;;;;;;;;18.67;18.67;;;;;25.17;43.55;100973.13;5101427;27;45601;-69
2023/07/02 07:49:36;;;;;;;;;19.33;19.33;;;;;25.04;43.05;100968.75;5101017;27;45379;-70
2023/07/02 07:52:03;;;;;;;;;21.00;16.00;;;;;25.06;43.29;100987.53;5099291;27;46238;-70
2023/07/02 07:54:28;;;;;;;;;24.33;21.33;;;;;25.02;43.36;100984.44;5066501;28;46030;-70
2023/07/02 07:56:54;;;;;;;;;23.33;21.33;;;;;25.06;43.54;100985.66;5080291;27;45532;-69
2023/07/02 07:59:19;;;;;;;;;21.33;19.67;;;;;25.05;42.71;100986.72;5080536;28;45399;-69
2023/07/02 08:01:46;;;;;;;;;23.67;22.67;;;;;25.03;43.04;100977.09;5090635;27;46359;-70
2023/07/02 08:04:11;;;;;;;;;25.67;21.67;;;;;24.85;42.92;100946.19;5100738;27;45481;-70
2023/07/02 08:06:37;;;;;;;;;23.33;22.00;;;;;25.10;42.90;100992.28;5082269;27;45481;-70
2023/07/02 08:09:03;;;;;;;;;24.33;22.67;;;;;25.08;42.89;100990.84;5082045;27;45481;-70
2023/07/02 08:11:28;;;;;;;;;22.00;19.67;;;;;25.02;42.43;100984.44;5082091;27;47474;-70
2023/07/02 08:13:54;;;;;;;;;27.67;23.33;;;;;24.99;42.76;100986.75;5100460;27;45335;-70
2023/07/02 08:16:19;;;;;;;;;21.67;19.33;;;;;24.63;42.96;100944.22;5100647;27;45509;-69
2023/07/02 08:18:45;;;;;;;;;20.00;17.67;;;;;24.78;43.19;100971.81;5100568;27;45384;-69
2023/07/02 08:21:11;;;;;;;;;21.33;19.67;;;;;24.60;43.48;100959.09;5081112;27;46467;-70
2023/07/02 08:23:37;;;;;;;;;21.00;18.00;;;;;24.79;42.72;100996.06;5100193;27;45255;-69
2023/07/02 08:26:02;;;;;;;;;17.33;15.67;;;;;24.68;43.08;100983.25;5100213;27;45216;-69
2023/07/02 08:28:28;;;;;;;;;19.67;19.00;;;;;24.63;43.51;100982.28;5100626;27;45263;-70
2023/07/02 08:30:53;;;;;;;;;21.00;17.67;;;;;24.14;43.82;100908.09;5100154;27;46705;-70
2023/07/02 08:33:19;;;;;;;;;24.00;19.33;;;;;24.54;42.85;100992.66;5100298;27;45318;-69
2023/07/02 08:35:44;;;;;;;;;29.67;25.33;;;;;24.52;43.72;100998.31;5100101;27;45342;-70
2023/07/02 08:38:09;;;;;;;;;24.00;22.00;;;;;24.15;43.96;100934.19;5081803;27;45698;-69
2023/07/02 08:40:35;;;;;;;;;23.00;20.00;;;;;24.48;43.72;100999.03;5099871;27;46381;-69
2023/07/02 08:43:00;;;;;;;;;21.00;17.33;;;;;24.19;43.33;100962.56;5099978;27;45484;-69
2023/07/02 08:45:26;;;;;;;;;20.67;17.33;;;;;24.47;42.81;101009.06;5098058;27;45338;-74
2023/07/02 08:47:56;;;;;;;;;24.67;21.00;;;;;24.44;42.98;100998.66;5097726;27;45288;-71
2023/07/02 08:50:22;;;;;;;;;21.67;20.33;;;;;24.55;43.63;101008.72;5098635;27;47329;-69
2023/07/02 08:52:47;;;;;;;;;28.33;22.33;;;;;24.63;43.16;101013.03;5099737;27;45305;-69
2023/07/02 08:55:13;;;;;;;;;21.33;20.33;;;;;24.58;42.29;101000.13;5079480;27;45636;-69
2023/07/02 08:57:38;;;;;;;;;17.33;16.67;;;;;24.51;42.25;100976.81;5098786;27;45282;-69
2023/07/02 09:00:10;;;;;;;;;27.33;24.00;;;;;24.70;43.11;100994.75;5099551;27;48267;-68
2023/07/02 09:02:35;;;;;;;;;23.33;20.00;;;;;24.85;41.43;101005.19;5099792;27;45225;-68
2023/07/02 09:05:03;;;;;;;;;19.00;17.00;;;;;24.88;40.81;100993.84;5099315;27;45315;-68
2023/07/02 09:07:28;;;;;;;;;18.33;16.33;;;;;24.91;40.63;101004.25;5099304;27;45532;-69
2023/07/02 09:09:54;;;;;;;;;20.33;19.00;;;;;25.04;41.40;101003.28;5098743;27;45989;-71
2023/07/02 09:12:29;;;;;;;;;19.00;16.67;;;;;24.79;40.04;100952.53;5081004;27;45363;-69
2023/07/02 09:15:03;;;;;;;;;19.33;16.67;;;;;25.06;39.35;100991.09;5099380;27;45351;-70
2023/07/02 09:17:34;;;;;;;;;22.00;19.00;;;;;24.98;39.95;100987.84;5098559;27;45538;-70
2023/07/02 09:20:01;;;;;;;;;24.00;19.33;;;;;24.93;40.48;100988.53;5077162;27;45375;-69
2023/07/02 09:22:27;;;;;;;;;25.33;17.67;;;;;24.92;40.12;100989.59;5078927;27;45260;-70
2023/07/02 09:24:58;;;;;;;;;21.00;20.00;;;;;24.98;40.68;100988.66;5078584;28;45303;-70
2023/07/02 09:27:41;;;;;;;;;21.33;18.33;;;;;25.13;40.02;100986.38;5098061;27;45691;-72
2023/07/02 09:30:17;;;;;;;;;20.00;17.67;;;;;25.12;39.29;100979.25;5098902;27;45719;-73
2023/07/02 09:32:46;;;;;;;;;21.67;18.67;;;;;25.21;39.34;100992.50;5099052;27;45447;-72
2023/07/02 09:35:12;;;;;;;;;24.67;21.67;;;;;25.17;39.27;100986.72;5099302;27;45446;-71
2023/07/02 09:37:41;;;;;;;;;18.33;17.67;;;;;25.08;38.53;100978.09;5099315;27;45498;-70
2023/07/02 09:40:08;;;;;;;;;16.33;14.33;;;;;24.96;38.97;100993.50;5080560;27;46568;-71
2023/07/02 09:42:35;;;;;;;;;21.00;19.67;;;;;24.84;39.25;100981.78;5079688;27;45437;-69
2023/07/02 09:45:02;;;;;;;;;35.00;30.00;;;;;24.88;38.54;100989.25;5098818;27;45335;-69
2023/07/02 09:47:29;;;;;;;;;20.00;17.67;;;;;24.98;38.55;100993.28;5099185;27;45252;-74
2023/07/02 09:50:01;;;;;;;;;21.67;14.00;;;;;25.08;39.06;100980.81;5097063;27;47475;-69
2023/07/02 09:52:29;;;;;;;;;16.00;16.00;;;;;25.17;37.84;100979.38;5098544;27;45557;-69
2023/07/02 09:54:55;;;;;;;;;15.67;15.67;;;;;24.94;36.10;100937.69;5098544;27;45430;-70
2023/07/02 09:57:21;;;;;;;;;18.67;16.67;;;;;25.23;36.93;100983.09;5096146;27;45316;-70
2023/07/02 09:59:46;;;;;;;;;15.00;13.67;;;;;25.17;37.15;100982.09;5097848;27;46445;-72
2023/07/02 10:02:13;;;;;;;;;21.67;17.00;;;;;24.78;36.89;100928.31;5098512;27;45347;-71
2023/07/02 10:04:46;;;;;;;;;14.33;14.33;;;;;25.09;38.00;100987.91;5098774;27;45456;-71
2023/07/02 10:07:12;;;;;;;;;16.33;16.33;;;;;25.15;37.80;100984.22;5098533;27;45312;-71
2023/07/02 10:09:39;;;;;;;;;18.33;15.67;;;;;25.16;37.45;100985.88;5098227;27;46356;-71
2023/07/02 10:12:25;;;;;;;;;18.33;13.00;;;;;25.16;37.13;100979.63;5098303;27;45507;-71
2023/07/02 10:14:53;;;;;;;;;18.67;15.67;;;;;25.18;36.83;100983.75;5097267;27;45679;-68
2023/07/02 10:17:32;;;;;;;;;21.67;16.67;;;;;25.27;36.75;100986.97;5078990;27;45492;-70
2023/07/02 10:20:07;;;;;;;;;18.00;15.33;;;;;25.38;36.62;100988.03;5085977;27;45763;-71
2023/07/02 10:22:47;;;;;;;;;20.33;17.33;;;;;25.13;35.92;100926.50;5098272;27;45419;-70
2023/07/02 10:25:25;;;;;;;;;15.00;13.00;;;;;25.42;35.30;100981.06;5098124;27;45271;-70
2023/07/02 10:27:50;;;;;;;;;15.33;15.00;;;;;25.42;34.72;100973.72;5098533;27;45546;-70
2023/07/02 10:30:15;;;;;;;;;11.00;11.00;;;;;25.46;35.30;100979.53;5077867;27;48889;-70
2023/07/02 10:32:41;;;;;;;;;20.33;17.33;;;;;25.00;35.75;100912.28;5098419;27;45366;-70
2023/07/02 10:35:19;;;;;;;;;18.33;16.00;;;;;25.40;36.35;100980.47;5098507;27;45371;-69
2023/07/02 10:37:44;;;;;;;;;18.00;15.33;;;;;25.42;36.73;100983.78;5079863;27;45342;-69
2023/07/02 10:40:11;;;;;;;;;19.33;18.00;;;;;25.45;36.56;100972.44;5097114;27;46427;-68
2023/07/02 10:42:50;;;;;;;;;19.00;16.33;;;;;25.31;34.19;100958.22;5098143;27;45544;-70
2023/07/02 10:45:16;;;;;;;;;17.00;17.00;;;;;25.34;34.48;100970.53;5098044;27;45516;-69
2023/07/02 10:47:42;;;;;;;;;15.33;15.00;;;;;25.26;34.41;100952.66;5098170;27;45574;-69
2023/07/02 10:50:28;;;;;;;;;16.00;15.00;;;;;25.35;34.91;100981.19;5097907;27;45288;-69
2023/07/02 10:52:53;;;;;;;;;14.33;14.33;;;;;25.24;34.85;100945.81;5097418;27;45298;-70
2023/07/02 10:55:20;;;;;;;;;15.33;14.33;;;;;25.30;35.48;100953.84;5096127;27;60316;-69
2023/07/02 10:57:47;;;;;;;;;16.67;14.67;;;;;25.39;35.67;100963.31;5098040;27;45198;-71
2023/07/02 11:00:12;;;;;;;;;20.67;16.33;;;;;25.38;35.05;100961.66;5079200;27;47243;-69
2023/07/02 11:02:38;;;;;;;;;15.00;12.67;;;;;25.34;35.66;100962.38;5097867;27;45402;-69
2023/07/02 11:05:11;;;;;;;;;17.00;15.67;;;;;25.00;35.15;100904.13;5097908;27;45662;-69
2023/07/02 11:07:38;;;;;;;;;14.67;14.33;;;;;25.34;36.01;100960.47;5098114;27;45279;-70